createdAt,value
2018-02-20T11:11:50.755Z,97910.06
2018-02-20T11:14:18.310Z,97906.57
2018-02-20T11:16:46.046Z,97917.06
2018-02-20T11:19:13.753Z,97908.68
2018-02-20T11:21:41.370Z,97913.86
2018-02-20T11:24:09.125Z,97912.52
2018-02-20T11:26:36.792Z,97915.18
2018-02-20T11:29:04.451Z,97918.09
2018-02-20T11:31:31.982Z,97911.48
2018-02-20T11:33:59.636Z,97906.94
2018-02-20T11:36:27.413Z,97914.02
2018-02-20T11:38:55.362Z,97917.36
2018-02-20T11:41:22.972Z,97917.94
2018-02-20T11:43:51.118Z,97914.45
2018-02-20T11:46:18.887Z,97915.16
2018-02-20T11:48:46.535Z,97919.32
2018-02-20T11:51:14.189Z,97914.08
2018-02-20T11:53:41.791Z,97918.73
2018-02-20T11:56:09.336Z,97916.28
2018-02-20T11:58:37.104Z,97913.98
2018-02-20T12:01:04.711Z,97918.67
2018-02-20T12:03:32.487Z,97921.85
2018-02-20T12:06:00.283Z,97917.83
2018-02-20T12:08:28.633Z,97919.34
2018-02-20T12:10:56.557Z,97921.41
2018-02-20T12:13:24.194Z,97914.55
2018-02-20T12:15:51.829Z,97915.58
2018-02-20T12:18:19.524Z,97918.60
2018-02-20T12:20:47.374Z,97913.39
2018-02-20T12:23:15.191Z,97910.42
2018-02-20T12:25:42.986Z,97909.91
2018-02-20T12:28:10.747Z,97909.47
2018-02-20T12:30:38.411Z,97914.50
2018-02-20T12:33:06.153Z,97911.20
2018-02-20T12:35:33.883Z,97918.66
2018-02-20T12:38:01.757Z,97913.05
2018-02-20T12:40:29.547Z,97910.72
2018-02-20T12:42:57.287Z,97905.81
2018-02-20T12:45:24.892Z,97912.45
2018-02-20T12:47:52.728Z,97918.96
2018-02-20T12:50:20.560Z,97921.72
2018-02-20T12:52:48.773Z,97920.64
2018-02-20T12:55:16.528Z,97910.81
2018-02-20T12:57:44.111Z,97921.27
2018-02-20T13:00:12.121Z,97914.77
2018-02-20T13:02:40.138Z,97915.81
2018-02-20T13:05:07.854Z,97917.22
2018-02-20T13:07:35.666Z,97911.39
2018-02-20T13:10:03.551Z,97910.66
2018-02-20T13:12:31.376Z,97912.73
2018-02-20T13:14:59.097Z,97908.58
2018-02-20T13:17:26.912Z,97914.25
2018-02-20T13:19:54.556Z,97917.02
2018-02-20T13:22:22.148Z,97915.69
2018-02-20T13:24:49.947Z,97921.97
2018-02-20T13:27:17.807Z,97915.17
2018-02-20T13:29:45.445Z,97920.05
2018-02-20T13:32:13.234Z,97920.66
2018-02-20T13:34:40.782Z,97913.01
2018-02-20T13:37:08.393Z,97924.38
2018-02-20T13:39:36.274Z,97918.23
2018-02-20T13:42:04.323Z,97911.84
2018-02-20T13:44:31.859Z,97913.09
2018-02-20T13:46:59.792Z,97914.62
2018-02-20T13:49:27.494Z,97913.15
2018-02-20T13:51:55.285Z,97914.14
2018-02-20T13:54:22.896Z,97917.06
2018-02-20T13:56:50.442Z,97918.59
2018-02-20T13:59:18.341Z,97920.30
2018-02-20T14:01:46.003Z,97917.24
2018-02-20T14:04:13.696Z,97922.25
2018-02-20T14:06:41.320Z,97928.63
2018-02-20T14:09:08.963Z,97924.05
2018-02-20T14:11:36.592Z,97919.03
2018-02-20T14:14:04.172Z,97923.29
2018-02-20T14:16:31.717Z,97920.27
2018-02-20T14:18:59.303Z,97923.28
2018-02-20T14:21:26.882Z,97918.61
2018-02-20T14:23:54.584Z,97920.91
2018-02-20T14:26:22.228Z,97919.50
2018-02-20T14:28:50.388Z,97916.38
2018-02-20T14:31:18.496Z,97911.48
2018-02-20T14:33:46.072Z,97916.05
2018-02-20T14:36:13.688Z,97911.64
2018-02-20T14:38:41.428Z,97919.76
2018-02-20T14:41:09.668Z,97919.48
2018-02-20T14:43:37.517Z,97914.14
2018-02-20T14:46:05.267Z,97915.45
2018-02-20T14:48:33.517Z,97920.75
2018-02-20T14:51:01.177Z,97922.64
2018-02-20T14:53:28.918Z,97921.19
2018-02-20T14:55:56.516Z,97915.53
2018-02-20T14:58:24.352Z,97915.28
2018-02-20T15:00:52.223Z,97914.39
2018-02-20T15:03:19.808Z,97918.20
2018-02-20T15:05:47.486Z,97912.34
2018-02-20T15:08:15.169Z,97916.82
2018-02-20T15:10:42.876Z,97920.05
2018-02-20T15:13:10.638Z,97920.49
2018-02-20T15:15:38.229Z,97915.05
2018-02-20T15:18:05.857Z,97919.91
2018-02-20T15:20:33.436Z,97917.77
2018-02-20T15:23:01.220Z,97922.56
2018-02-20T15:25:28.951Z,97923.13
2018-02-20T15:27:56.637Z,97923.69
2018-02-20T15:30:24.482Z,97928.61
2018-02-20T15:32:52.091Z,97931.23
2018-02-20T15:35:19.822Z,97931.00
2018-02-20T15:37:47.532Z,97932.41
2018-02-20T15:40:15.789Z,97933.02
2018-02-20T15:42:43.346Z,97936.60
2018-02-20T15:45:11.054Z,97938.91
2018-02-20T15:47:38.932Z,97937.08
2018-02-20T15:50:06.767Z,97939.12
2018-02-20T15:52:34.424Z,97940.15
2018-02-20T15:55:02.005Z,97944.16
2018-02-20T15:57:29.615Z,97941.41
2018-02-20T15:59:57.269Z,97944.19
2018-02-20T16:02:24.918Z,97957.76
2018-02-20T16:04:52.561Z,97953.86
2018-02-20T16:07:20.264Z,97951.36
2018-02-20T16:09:47.874Z,97955.11
2018-02-20T16:12:15.762Z,97952.95
2018-02-20T16:14:44.154Z,97959.45
2018-02-20T16:17:11.827Z,97959.45
2018-02-20T16:19:39.433Z,97966.37
2018-02-20T16:22:07.158Z,97965.64
2018-02-20T16:24:35.195Z,97973.02
2018-02-20T16:27:02.775Z,97965.59
2018-02-20T16:29:30.619Z,97970.92
2018-02-20T16:31:58.276Z,97966.83
2018-02-20T16:34:26.134Z,97971.64
2018-02-20T16:36:53.726Z,97971.03
2018-02-20T16:39:21.463Z,97967.66
2018-02-20T16:41:49.268Z,97973.33
2018-02-20T16:44:16.854Z,97971.89
2018-02-20T16:46:44.432Z,97973.89
2018-02-20T16:49:12.260Z,97965.86
2018-02-20T16:51:40.344Z,97969.18
2018-02-20T16:54:07.946Z,97973.44
2018-02-20T16:56:35.740Z,97971.95
2018-02-20T16:59:03.723Z,97970.97
2018-02-20T17:01:31.398Z,97973.58
2018-02-20T17:03:59.038Z,97975.47
2018-02-20T17:06:26.597Z,97970.18
2018-02-20T17:08:54.283Z,97973.27
2018-02-20T17:11:21.975Z,97969.77
2018-02-20T17:13:49.591Z,97976.27
2018-02-20T17:16:17.345Z,97966.45
2018-02-20T17:18:45.119Z,97980.80
2018-02-20T17:21:12.823Z,97980.01
2018-02-20T17:23:41.112Z,97983.23
2018-02-20T17:26:08.713Z,97992.00
2018-02-20T17:28:36.314Z,97984.52
2018-02-20T17:31:03.871Z,97984.67
2018-02-20T17:33:31.438Z,97982.44
2018-02-20T17:35:59.026Z,97989.23
2018-02-20T17:38:26.576Z,97992.05
2018-02-20T17:40:54.543Z,97990.73
2018-02-20T17:43:22.091Z,97995.63
2018-02-20T17:45:49.807Z,97993.23
2018-02-20T17:48:17.603Z,97993.06
2018-02-20T17:50:45.185Z,97995.09
2018-02-20T17:53:12.802Z,97988.84
2018-02-20T17:55:40.602Z,97999.38
2018-02-20T17:58:08.272Z,98002.94
2018-02-20T18:00:35.970Z,97997.66
2018-02-20T18:03:03.500Z,98006.88
2018-02-20T18:05:31.550Z,98014.24
2018-02-20T18:07:59.208Z,98014.59
2018-02-20T18:10:26.992Z,98015.35
2018-02-20T18:12:54.644Z,98018.30
2018-02-20T18:15:22.207Z,98019.80
2018-02-20T18:17:49.978Z,98018.05
2018-02-20T18:20:17.901Z,98029.22
2018-02-20T18:22:45.898Z,98027.33
2018-02-20T18:25:13.694Z,98024.12
2018-02-20T18:27:41.746Z,98029.72
2018-02-20T18:30:10.521Z,98028.41
2018-02-20T18:32:38.172Z,98025.67
2018-02-20T18:35:05.878Z,98027.63
2018-02-20T18:37:33.477Z,98029.55
2018-02-20T18:40:01.232Z,98032.16
2018-02-20T18:42:28.958Z,98031.36
2018-02-20T18:44:56.735Z,98040.63
2018-02-20T18:47:24.809Z,98036.66
2018-02-20T18:49:52.521Z,98039.75
2018-02-20T18:52:21.201Z,98044.31
2018-02-20T18:54:48.932Z,98043.55
2018-02-20T18:57:16.603Z,98048.41
2018-02-20T18:59:44.386Z,98056.09
2018-02-20T19:02:12.104Z,98052.69
2018-02-20T19:04:39.664Z,98056.03
2018-02-20T19:07:07.634Z,98053.14
2018-02-20T19:09:37.466Z,98051.46
2018-02-20T19:12:05.254Z,98056.25
2018-02-20T19:14:33.622Z,98054.08
2018-02-20T19:17:01.549Z,98056.50
2018-02-20T19:19:29.302Z,98067.70
2018-02-20T19:21:57.026Z,98067.11
2018-02-20T19:24:24.748Z,98077.09
2018-02-20T19:26:52.536Z,98075.97
2018-02-20T19:29:20.089Z,98081.00
2018-02-20T19:31:47.941Z,98076.61
2018-02-20T19:34:15.566Z,98076.34
2018-02-20T19:36:43.287Z,98077.72
2018-02-20T19:39:11.049Z,98079.28
2018-02-20T19:41:38.687Z,98089.14
2018-02-20T19:44:06.504Z,98086.97
2018-02-20T19:46:34.123Z,98085.67
2018-02-20T19:49:02.732Z,98084.39
2018-02-20T19:51:30.597Z,98095.61
2018-02-20T19:53:58.460Z,98095.28
2018-02-20T19:56:26.094Z,98096.20
2018-02-20T19:58:53.879Z,98096.95
2018-02-20T20:01:21.646Z,98096.20
2018-02-20T20:03:49.253Z,98100.94
2018-02-20T20:06:16.849Z,98096.55
2018-02-20T20:08:44.899Z,98094.58
2018-02-20T20:11:12.668Z,98094.74
2018-02-20T20:13:40.510Z,98099.44
2018-02-20T20:16:08.168Z,98102.20
2018-02-20T20:18:35.791Z,98103.75
2018-02-20T20:21:03.497Z,98102.08
2018-02-20T20:23:31.173Z,98105.84
2018-02-20T20:25:58.842Z,98108.73
2018-02-20T20:28:26.459Z,98107.77
2018-02-20T20:30:54.192Z,98108.58
2018-02-20T20:33:22.068Z,98116.06
2018-02-20T20:35:50.129Z,98116.08
2018-02-20T20:38:17.806Z,98119.05
2018-02-20T20:40:45.422Z,98119.66
2018-02-20T20:43:13.098Z,98118.96
2018-02-20T20:45:40.749Z,98116.16
2018-02-20T20:48:08.639Z,98116.38
2018-02-20T20:50:36.251Z,98121.67
2018-02-20T20:53:04.149Z,98122.01
2018-02-20T20:55:32.462Z,98117.30
2018-02-20T20:58:00.252Z,98110.87
2018-02-20T21:00:28.854Z,98127.04
2018-02-20T21:02:56.554Z,98123.47
2018-02-20T21:05:24.288Z,98117.92
2018-02-20T21:07:52.201Z,98125.25
2018-02-20T21:10:19.900Z,98122.25
2018-02-20T21:12:47.642Z,98125.48
2018-02-20T21:15:15.464Z,98122.02
2018-02-20T21:17:43.057Z,98125.35
2018-02-20T21:20:10.989Z,98122.94
2018-02-20T21:22:38.654Z,98126.09
2018-02-20T21:25:06.312Z,98127.42
2018-02-20T21:27:34.052Z,98125.18
2018-02-20T21:30:01.664Z,98120.41
2018-02-20T21:32:29.272Z,98114.69
2018-02-20T21:34:57.184Z,98111.49
2018-02-20T21:37:24.828Z,98110.67
2018-02-20T21:39:52.483Z,98113.42
2018-02-20T21:42:20.247Z,98112.56
2018-02-20T21:44:47.821Z,98108.80
2018-02-20T21:47:15.552Z,98110.76
2018-02-20T21:49:43.078Z,98109.78
2018-02-20T21:52:11.459Z,98107.56
2018-02-20T21:54:39.054Z,98104.13
2018-02-20T21:57:06.814Z,98103.75
2018-02-20T21:59:34.416Z,98098.24
2018-02-20T22:02:02.164Z,98097.80
2018-02-20T22:04:30.065Z,98101.55
2018-02-20T22:06:57.989Z,98107.06
2018-02-20T22:09:25.593Z,98104.46
2018-02-20T22:11:53.480Z,98103.97
2018-02-20T22:14:21.160Z,98109.00
2018-02-20T22:16:48.879Z,98102.13
2018-02-20T22:19:16.592Z,98109.11
2018-02-20T22:21:44.361Z,98105.84
2018-02-20T22:24:12.114Z,98101.03
2018-02-20T22:26:40.068Z,98115.06
2018-02-20T22:29:07.653Z,98108.42
2018-02-20T22:31:35.199Z,98108.05
2018-02-20T22:34:03.224Z,98111.25
2018-02-20T22:36:30.797Z,98111.31
2018-02-20T22:38:58.343Z,98120.38
2018-02-20T22:41:25.977Z,98112.03
2018-02-20T22:43:53.581Z,98117.62
2018-02-20T22:46:21.429Z,98122.70
2018-02-20T22:48:49.038Z,98120.45
2018-02-20T22:51:16.738Z,98128.28
2018-02-20T22:53:44.592Z,98129.39
2018-02-20T22:56:12.258Z,98126.82
2018-02-20T22:58:39.881Z,98126.48
2018-02-20T23:01:07.557Z,98128.34
2018-02-20T23:03:35.263Z,98131.69
2018-02-20T23:06:03.629Z,98132.23
2018-02-20T23:08:31.452Z,98135.48
2018-02-20T23:10:59.117Z,98135.19
2018-02-20T23:13:27.280Z,98139.72
2018-02-20T23:15:55.178Z,98140.61
2018-02-20T23:18:23.548Z,98134.41
2018-02-20T23:20:51.268Z,98139.24
2018-02-20T23:23:19.742Z,98142.10
2018-02-20T23:25:47.334Z,98147.92
2018-02-20T23:28:17.008Z,98148.34
2018-02-20T23:30:44.758Z,98148.08
2018-02-20T23:33:12.339Z,98150.96
2018-02-20T23:35:40.664Z,98153.47
2018-02-20T23:38:08.377Z,98148.73
2018-02-20T23:40:36.363Z,98153.09
2018-02-20T23:43:04.178Z,98153.77
2018-02-20T23:45:31.813Z,98155.34
2018-02-20T23:47:59.426Z,98160.42
2018-02-20T23:50:28.157Z,98160.78
2018-02-20T23:52:55.840Z,98159.11
2018-02-20T23:55:23.497Z,98161.68
2018-02-20T23:57:51.113Z,98157.94
